Time;durP1;ratioP1;P1;durP2;ratioP2;P2;SDS_P1;SDS_P2;PMS_P1;PMS_P2;Temp;Humidity;BMP_temperature;BMP_pressure;BME280_temperature;BME280_humidity;BME280_pressure;Samples;Min_cycle;Max_cycle;Signal;HPM_P1;HPM_P2
2022/12/28 00:00:09;;;;;;;5.37;2.20;;;;;;;4.16;100.00;101084.84;683181;28;1561;-65
2022/12/28 00:00:32;;;;;;;6.65;2.10;;;;;;;4.21;100.00;101080.66;680711;28;1145;-65
2022/12/28 00:00:53;;;;;;;4.37;2.00;;;;;;;4.23;100.00;101079.00;682698;28;1448;-64
2022/12/28 00:01:17;;;;;;;6.28;2.50;;;;;;;4.20;100.00;101087.53;682421;28;4437;-65
2022/12/28 00:01:38;;;;;;;5.92;2.24;;;;;;;4.22;100.00;101082.41;681739;28;2155;-64
2022/12/28 00:01:58;;;;;;;5.03;2.10;;;;;;;4.31;100.00;101079.22;684325;28;1272;-65
2022/12/28 00:02:19;;;;;;;6.97;2.23;;;;;;;4.30;100.00;101080.91;686952;28;1333;-65
2022/12/28 00:02:39;;;;;;;6.27;2.07;;;;;;;4.27;100.00;101078.25;687588;28;1135;-65
2022/12/28 00:02:59;;;;;;;5.60;2.07;;;;;;;4.29;100.00;101079.16;687440;28;1148;-65
2022/12/28 00:03:20;;;;;;;5.78;2.30;;;;;;;4.28;100.00;101081.69;688087;28;1199;-66
2022/12/28 00:03:41;;;;;;;5.80;2.43;;;;;;;4.28;100.00;101074.84;686085;28;1214;-65
2022/12/28 00:04:05;;;;;;;7.50;2.38;;;;;;;4.34;100.00;101069.81;683870;28;4671;-66
2022/12/28 00:04:25;;;;;;;5.93;2.20;;;;;;;4.33;100.00;101073.22;688788;28;1329;-66
2022/12/28 00:04:46;;;;;;;5.95;2.33;;;;;;;4.30;100.00;101075.75;687299;28;1151;-65
2022/12/28 00:05:07;;;;;;;6.25;2.15;;;;;;;4.29;100.00;101076.56;685093;28;2105;-65
2022/12/28 00:05:28;;;;;;;6.28;2.30;;;;;;;4.24;100.00;101075.59;686567;28;2125;-64
2022/12/28 00:05:48;;;;;;;5.63;2.40;;;;;;;4.22;100.00;101074.66;687500;28;1228;-64
2022/12/28 00:06:09;;;;;;;5.25;2.30;;;;;;;4.21;100.00;101075.47;687098;28;1603;-65
2022/12/28 00:06:31;;;;;;;6.20;2.35;;;;;;;4.19;100.00;101077.16;686586;28;1199;-66
2022/12/28 00:06:52;;;;;;;4.97;2.20;;;;;;;4.16;100.00;101074.50;687809;28;1147;-65
2022/12/28 00:07:12;;;;;;;5.97;2.38;;;;;;;4.14;100.00;101065.78;686872;28;4700;-65
2022/12/28 00:07:33;;;;;;;5.22;2.30;;;;;;;4.12;100.00;101068.34;687500;28;1320;-66
2022/12/28 00:07:54;;;;;;;4.27;2.10;;;;;;;4.16;100.00;101075.34;688916;28;1310;-66
2022/12/28 00:08:14;;;;;;;4.25;2.03;;;;;;;4.21;100.00;101067.72;686855;28;1219;-66
2022/12/28 00:08:35;;;;;;;5.80;2.10;;;;;;;4.21;100.00;101070.28;687567;28;1136;-66
2022/12/28 00:08:56;;;;;;;5.75;2.10;;;;;;;4.19;100.00;101070.25;687716;28;1168;-66
2022/12/28 00:09:17;;;;;;;6.70;2.20;;;;;;;4.21;100.00;101068.59;687009;28;1238;-66
2022/12/28 00:09:37;;;;;;;5.55;2.33;;;;;;;4.23;100.00;101072.09;686796;28;1271;-65
2022/12/28 00:09:58;;;;;;;6.70;2.23;;;;;;;4.26;100.00;101077.38;686590;28;4447;-65
2022/12/28 00:10:18;;;;;;;7.10;2.17;;;;;;;4.25;100.00;101074.72;687707;28;1352;-65
2022/12/28 00:10:39;;;;;;;5.20;1.93;;;;;;;4.26;100.00;101072.22;688389;28;1192;-63
2022/12/28 00:11:05;;;;;;;5.30;2.10;;;;;;;4.23;100.00;101072.09;687755;28;1100;-66
2022/12/28 00:11:27;;;;;;;5.90;2.17;;;;;;;4.23;100.00;101066.06;687353;28;1347;-65
2022/12/28 00:11:47;;;;;;;6.28;2.20;;;;;;;4.21;100.00;101065.13;688449;28;1488;-65
2022/12/28 00:12:08;;;;;;;6.73;2.20;;;;;;;4.17;100.00;101068.50;688310;28;1493;-65
2022/12/28 00:12:28;;;;;;;6.50;2.30;;;;;;;4.16;100.00;101074.50;688271;28;1902;-67
2022/12/28 00:12:49;;;;;;;4.93;2.15;;;;;;;4.15;100.00;101064.97;687053;28;1173;-65
2022/12/28 00:13:09;;;;;;;5.90;2.30;;;;;;;4.19;100.00;101074.56;686898;28;4324;-64
2022/12/28 00:13:31;;;;;;;4.73;2.17;;;;;;;4.19;100.00;101065.09;684986;28;1729;-66
2022/12/28 00:13:52;;;;;;;5.20;2.17;;;;;;;4.16;100.00;101061.56;681891;28;1200;-66
2022/12/28 00:14:12;;;;;;;5.53;2.20;;;;;;;4.28;100.00;101064.47;684110;28;1195;-66
2022/12/28 00:14:33;;;;;;;5.97;2.50;;;;;;;4.38;100.00;101065.59;685114;28;1392;-66
2022/12/28 00:14:53;;;;;;;5.87;2.30;;;;;;;4.36;100.00;101062.97;685806;28;1250;-65
2022/12/28 00:15:13;;;;;;;4.60;1.90;;;;;;;4.46;100.00;101061.50;684142;28;1444;-66
2022/12/28 00:15:36;;;;;;;5.90;2.13;;;;;;;4.47;100.00;101062.38;687590;28;1431;-65
2022/12/28 00:15:57;;;;;;;5.22;2.08;;;;;;;4.49;100.00;101064.19;688127;28;1253;-66
2022/12/28 00:16:25;;;;;;;5.88;2.28;;;;;;;4.54;100.00;101067.78;686953;28;4691;-66
2022/12/28 00:16:46;;;;;;;6.75;2.40;;;;;;;4.59;100.00;101065.28;689315;28;1023;-65
2022/12/28 00:17:07;;;;;;;7.28;2.50;;;;;;;4.57;100.00;101064.38;687634;28;1501;-66
2022/12/28 00:17:27;;;;;;;4.95;2.15;;;;;;;4.52;100.00;101064.25;685781;28;1522;-66
2022/12/28 00:17:47;;;;;;;4.60;1.90;;;;;;;4.52;100.00;101063.38;682218;28;1466;-65
2022/12/28 00:18:08;;;;;;;4.97;1.90;;;;;;;4.47;100.00;101070.13;683358;28;1402;-66
2022/12/28 00:18:28;;;;;;;5.50;2.70;;;;;;;4.41;100.00;101071.72;684905;28;1683;-65
2022/12/28 00:18:48;;;;;;;4.70;2.47;;;;;;;4.35;100.00;101065.53;685407;28;1584;-66
2022/12/28 00:19:14;;;;;;;4.05;1.98;;;;;;;4.31;100.00;101068.88;681378;28;4447;-66
2022/12/28 00:19:34;;;;;;;5.97;2.10;;;;;;;4.26;100.00;101066.13;684921;28;1436;-65
2022/12/28 00:19:55;;;;;;;6.65;2.30;;;;;;;4.24;100.00;101063.50;688311;28;1361;-65
2022/12/28 00:20:15;;;;;;;6.20;2.30;;;;;;;4.25;100.00;101069.53;687373;28;3469;-66
2022/12/28 00:20:35;;;;;;;5.55;2.00;;;;;;;4.23;100.00;101073.81;687146;28;1227;-65
2022/12/28 00:20:59;;;;;;;5.53;1.90;;;;;;;4.20;100.00;101076.34;686855;28;1184;-66
2022/12/28 00:21:20;;;;;;;5.28;2.00;;;;;;;4.16;100.00;101070.19;686580;28;1246;-65
2022/12/28 00:21:42;;;;;;;5.25;2.10;;;;;;;4.20;100.00;101066.84;687742;28;1111;-65
2022/12/28 00:22:03;;;;;;;6.68;2.30;;;;;;;4.29;100.00;101067.94;684734;28;4349;-66
2022/12/28 00:22:23;;;;;;;5.50;2.15;;;;;;;4.32;100.00;101068.00;685714;28;1273;-67
2022/12/28 00:22:43;;;;;;;6.23;2.37;;;;;;;4.35;100.00;101061.22;685702;28;1183;-66
2022/12/28 00:23:05;;;;;;;6.10;2.20;;;;;;;4.37;100.00;101064.72;687324;28;1695;-66
2022/12/28 00:23:26;;;;;;;5.22;2.10;;;;;;;4.32;100.00;101061.16;687759;28;1521;-66
2022/12/28 00:23:48;;;;;;;5.20;2.20;;;;;;;4.28;100.00;101066.16;685405;28;1330;-66
2022/12/28 00:24:19;;;;;;;6.03;2.22;;;;;;;4.22;100.00;101062.59;686978;28;1666;-66
2022/12/28 00:24:39;;;;;;;5.57;2.22;;;;;;;4.29;100.00;101066.22;687237;28;1320;-65
2022/12/28 00:25:00;;;;;;;5.93;2.30;;;;;;;4.40;100.00;101070.00;682976;28;4381;-65
2022/12/28 00:25:20;;;;;;;5.27;2.10;;;;;;;4.48;100.00;101059.81;684441;28;1252;-65
2022/12/28 00:25:40;;;;;;;5.18;2.15;;;;;;;4.46;100.00;101065.78;684985;28;1387;-66
2022/12/28 00:26:11;;;;;;;5.67;2.20;;;;;;;4.55;100.00;101063.47;684421;28;1318;-65
2022/12/28 00:26:33;;;;;;;4.82;2.20;;;;;;;4.56;100.00;101068.66;684632;28;1064;-65
2022/12/28 00:26:55;;;;;;;5.70;2.10;;;;;;;4.62;100.00;101062.78;680717;28;1623;-66
2022/12/28 00:27:16;;;;;;;7.50;2.35;;;;;;;4.60;100.00;101061.88;680729;29;1408;-65
2022/12/28 00:27:36;;;;;;;6.75;2.20;;;;;;;4.54;100.00;101061.69;681259;29;1236;-64
2022/12/28 00:27:56;;;;;;;6.83;2.27;;;;;;;4.52;100.00;101060.78;683985;28;1204;-64
2022/12/28 00:28:19;;;;;;;6.95;2.13;;;;;;;4.48;100.00;101066.72;681807;28;4527;-64
2022/12/28 00:28:40;;;;;;;6.88;2.50;;;;;;;4.49;100.00;101063.31;681062;28;1638;-66
2022/12/28 00:29:01;;;;;;;5.63;2.13;;;;;;;4.43;100.00;101062.31;681524;28;1295;-64
2022/12/28 00:29:22;;;;;;;5.45;2.17;;;;;;;4.41;100.00;101066.53;681528;29;1137;-64
2022/12/28 00:29:43;;;;;;;5.88;2.33;;;;;;;4.43;100.00;101072.66;681375;28;1813;-65
2022/12/28 00:30:04;;;;;;;5.35;2.20;;;;;;;4.55;100.00;101071.22;682899;28;1524;-65
2022/12/28 00:30:24;;;;;;;4.15;1.88;;;;;;;4.56;100.00;101070.41;685017;28;1393;-68
2022/12/28 00:30:45;;;;;;;5.77;2.00;;;;;;;4.58;100.00;101061.84;686135;28;1243;-66
2022/12/28 00:31:06;;;;;;;5.60;1.90;;;;;;;4.67;100.00;101065.50;684800;28;4668;-65
2022/12/28 00:31:27;;;;;;;5.35;1.95;;;;;;;4.72;100.00;101061.28;684808;28;1372;-65
2022/12/28 00:31:49;;;;;;;5.18;2.20;;;;;;;4.63;100.00;101061.94;687535;28;1611;-65
2022/12/28 00:32:09;;;;;;;5.00;2.15;;;;;;;4.64;100.00;101063.72;687502;28;1259;-66
2022/12/28 00:32:30;;;;;;;7.30;2.37;;;;;;;4.68;100.00;101060.34;687280;28;1989;-66
2022/12/28 00:32:50;;;;;;;4.97;2.08;;;;;;;4.70;100.00;101057.81;682812;28;1397;-65
2022/12/28 00:33:13;;;;;;;4.72;1.90;;;;;;;4.72;100.00;101062.19;682493;28;1365;-66
2022/12/28 00:33:33;;;;;;;5.45;2.10;;;;;;;4.76;100.00;101064.03;681598;28;1256;-64
2022/12/28 00:33:54;;;;;;;6.00;2.13;;;;;;;4.72;100.00;101061.28;681934;28;1148;-65
2022/12/28 00:34:14;;;;;;;5.05;2.00;;;;;;;4.67;100.00;101061.19;681004;28;4330;-65
2022/12/28 00:34:35;;;;;;;6.00;2.20;;;;;;;4.62;100.00;101056.72;681644;28;1176;-65
2022/12/28 00:34:55;;;;;;;5.68;2.33;;;;;;;4.62;100.00;101065.38;683574;28;1179;-65
2022/12/28 00:35:15;;;;;;;6.17;2.30;;;;;;;4.58;100.00;101061.84;686735;28;1181;-66
2022/12/28 00:35:36;;;;;;;5.95;2.30;;;;;;;4.59;100.00;101065.28;685637;28;1144;-65
2022/12/28 00:35:58;;;;;;;5.37;2.20;;;;;;;4.58;100.00;101064.44;683563;28;1315;-65
2022/12/28 00:36:19;;;;;;;7.10;2.33;;;;;;;4.53;100.00;101059.97;685955;28;1276;-65
2022/12/28 00:36:41;;;;;;;6.05;2.60;;;;;;;4.54;100.00;101066.88;683081;28;1440;-64
2022/12/28 00:37:02;;;;;;;6.40;2.40;;;;;;;4.49;100.00;101063.31;678027;29;4391;-65
2022/12/28 00:37:23;;;;;;;5.57;2.20;;;;;;;4.50;100.00;101059.88;675202;29;1316;-66
2022/12/28 00:37:43;;;;;;;4.60;2.00;;;;;;;4.65;100.00;101059.38;676036;29;1344;-66
2022/12/28 00:38:04;;;;;;;7.10;2.27;;;;;;;4.64;100.00;101057.63;676188;29;1299;-65
2022/12/28 00:38:25;;;;;;;6.78;2.38;;;;;;;4.78;100.00;101064.91;676313;29;1464;-66
2022/12/28 00:38:46;;;;;;;7.22;2.33;;;;;;;4.75;100.00;101059.66;676591;29;4952;-65
2022/12/28 00:39:06;;;;;;;7.28;2.30;;;;;;;4.76;100.00;101053.66;681774;28;1481;-65
2022/12/28 00:39:27;;;;;;;6.53;2.30;;;;;;;4.76;100.00;101058.84;682286;28;1899;-65
2022/12/28 00:39:48;;;;;;;6.97;2.33;;;;;;;4.84;100.00;101056.44;684844;28;1580;-65
2022/12/28 00:40:09;;;;;;;5.57;2.20;;;;;;;4.76;100.00;101053.66;682008;28;4434;-65
2022/12/28 00:40:29;;;;;;;5.47;2.08;;;;;;;4.72;100.00;101058.69;684918;28;1540;-64
2022/12/28 00:40:50;;;;;;;5.32;2.13;;;;;;;4.66;100.00;101054.25;683997;28;1277;-64
2022/12/28 00:41:10;;;;;;;5.30;2.10;;;;;;;4.64;100.00;101053.34;682666;28;1332;-65
2022/12/28 00:41:31;;;;;;;5.22;2.20;;;;;;;4.68;100.00;101043.91;682248;28;1386;-64
2022/12/28 00:41:51;;;;;;;7.33;2.43;;;;;;;4.66;100.00;101049.06;681292;28;1065;-63
2022/12/28 00:42:12;;;;;;;5.07;2.28;;;;;;;4.65;100.00;101051.63;684362;28;1507;-66
2022/12/28 00:42:32;;;;;;;4.53;2.10;;;;;;;4.61;100.00;101055.88;686963;28;1140;-65
2022/12/28 00:42:52;;;;;;;4.82;2.10;;;;;;;4.60;100.00;101049.78;687507;28;1253;-65
2022/12/28 00:43:13;;;;;;;5.80;2.27;;;;;;;4.59;100.00;101052.34;686279;28;4597;-64
2022/12/28 00:43:34;;;;;;;5.35;2.28;;;;;;;4.54;100.00;101046.16;685279;28;1449;-64
2022/12/28 00:43:54;;;;;;;5.05;2.20;;;;;;;4.50;100.00;101041.75;684837;28;1410;-64
2022/12/28 00:44:15;;;;;;;6.80;2.28;;;;;;;4.50;100.00;101046.91;685304;28;1437;-64
2022/12/28 00:44:35;;;;;;;5.97;2.10;;;;;;;4.63;100.00;101037.78;685113;28;1136;-64
2022/12/28 00:44:56;;;;;;;5.60;2.35;;;;;;;4.65;100.00;101038.66;684889;28;1531;-65
2022/12/28 00:45:16;;;;;;;5.27;2.20;;;;;;;4.60;100.00;101035.97;685322;28;1353;-65
2022/12/28 00:45:38;;;;;;;5.20;2.20;;;;;;;4.54;100.00;101030.63;683892;28;2330;-64
2022/12/28 00:45:58;;;;;;;4.33;2.20;;;;;;;4.50;100.00;101021.03;680346;28;4456;-64
2022/12/28 00:46:19;;;;;;;4.82;2.10;;;;;;;4.55;100.00;101022.03;681948;28;1517;-65
2022/12/28 00:46:39;;;;;;;7.00;2.10;;;;;;;4.53;100.00;101022.00;683719;28;1330;-65
2022/12/28 00:46:59;;;;;;;6.45;2.08;;;;;;;4.46;100.00;101017.50;681342;29;1298;-65
2022/12/28 00:47:20;;;;;;;5.63;2.20;;;;;;;4.42;100.00;101011.34;678055;29;1402;-64
2022/12/28 00:47:40;;;;;;;5.65;2.08;;;;;;;4.46;100.00;101014.00;679912;29;1287;-65
2022/12/28 00:48:01;;;;;;;6.27;2.50;;;;;;;4.47;100.00;101008.88;677188;29;1382;-65
2022/12/28 00:48:21;;;;;;;6.63;2.40;;;;;;;4.43;100.00;101018.28;676998;29;1429;-65
2022/12/28 00:48:42;;;;;;;5.23;2.00;;;;;;;4.47;100.00;101014.03;678153;29;1276;-64
2022/12/28 00:49:03;;;;;;;5.85;2.13;;;;;;;4.44;100.00;101016.56;679097;29;4397;-64
2022/12/28 00:49:23;;;;;;;6.10;2.17;;;;;;;4.40;100.00;101012.16;683290;28;1244;-64
2022/12/28 00:49:44;;;;;;;6.77;2.30;;;;;;;4.39;100.00;101013.88;684363;28;1342;-64
2022/12/28 00:50:05;;;;;;;6.40;2.28;;;;;;;4.33;100.00;101013.69;688164;28;1296;-64
2022/12/28 00:50:25;;;;;;;5.72;2.38;;;;;;;4.30;100.00;101017.94;688011;28;1273;-64
2022/12/28 00:50:45;;;;;;;5.67;2.30;;;;;;;4.27;100.00;101016.13;684399;28;1349;-64
2022/12/28 00:51:12;;;;;;;6.15;2.42;;;;;;;4.22;100.00;101021.19;682447;28;1494;-65
2022/12/28 00:51:33;;;;;;;5.95;2.45;;;;;;;4.25;100.00;101016.09;682498;28;1172;-63
2022/12/28 00:51:53;;;;;;;5.40;2.40;;;;;;;4.33;100.00;101023.19;682575;28;1781;-64
2022/12/28 00:52:14;;;;;;;6.37;2.40;;;;;;;4.39;100.00;101018.19;683255;28;4335;-64
2022/12/28 00:52:34;;;;;;;5.83;2.33;;;;;;;4.42;100.00;101020.84;684571;28;1918;-62
2022/12/28 00:52:55;;;;;;;6.63;2.35;;;;;;;4.52;100.00;101019.38;685730;28;1163;-65
2022/12/28 00:53:15;;;;;;;6.37;2.30;;;;;;;4.54;100.00;101022.84;683805;28;1149;-64
2022/12/28 00:53:36;;;;;;;5.63;2.40;;;;;;;4.51;100.00;101025.38;683161;28;1380;-65
2022/12/28 00:53:56;;;;;;;5.65;2.35;;;;;;;4.57;100.00;101015.19;682886;28;1398;-65
2022/12/28 00:54:17;;;;;;;6.23;2.37;;;;;;;4.58;100.00;101006.56;682482;28;1164;-65
2022/12/28 00:54:37;;;;;;;6.03;2.40;;;;;;;4.58;100.00;101009.16;678955;29;1174;-65
2022/12/28 00:54:57;;;;;;;5.87;2.40;;;;;;;4.52;100.00;101016.78;678361;29;4314;-63
2022/12/28 00:55:18;;;;;;;7.25;2.40;;;;;;;4.49;100.00;101020.16;680961;28;1290;-65
2022/12/28 00:55:38;;;;;;;6.40;2.33;;;;;;;4.45;100.00;101015.75;681538;28;1372;-64
2022/12/28 00:56:14;;;;;;;5.25;2.20;;;;;;;4.46;100.00;101016.59;681769;28;1452;-63
2022/12/28 00:56:35;;;;;;;5.18;2.45;;;;;;;4.41;100.00;101014.78;681761;28;1133;-65
2022/12/28 00:56:55;;;;;;;5.30;2.40;;;;;;;4.48;100.00;101012.34;678602;29;1359;-64
2022/12/28 00:57:15;;;;;;;5.18;2.10;;;;;;;4.48;100.00;101009.78;677540;29;1427;-65
2022/12/28 00:57:39;;;;;;;5.33;2.23;;;;;;;4.45;100.00;101012.28;679283;29;1177;-64
2022/12/28 00:58:01;;;;;;;5.22;2.47;;;;;;;4.42;100.00;101005.31;678743;29;4396;-64
2022/12/28 00:58:21;;;;;;;6.78;2.45;;;;;;;4.47;100.00;100995.06;680726;28;1201;-64
2022/12/28 00:58:42;;;;;;;7.60;2.30;;;;;;;4.47;100.00;101008.00;682727;28;1436;-64
2022/12/28 00:59:02;;;;;;;7.05;2.60;;;;;;;4.53;100.00;101003.00;684731;28;1634;-63
2022/12/28 00:59:23;;;;;;;6.13;2.50;;;;;;;4.59;100.00;100991.06;687074;28;1365;-65
2022/12/28 00:59:43;;;;;;;6.13;2.30;;;;;;;4.59;100.00;100990.19;687575;28;1288;-63
2022/12/28 01:00:04;;;;;;;5.13;2.20;;;;;;;4.54;100.00;100989.19;690354;28;1348;-64
2022/12/28 01:00:25;;;;;;;5.72;2.28;;;;;;;4.52;100.00;100990.88;687777;28;1290;-63
2022/12/28 01:00:48;;;;;;;6.68;2.25;;;;;;;4.59;100.00;100990.19;687376;28;1523;-65
2022/12/28 01:01:21;;;;;;;6.05;2.47;;;;;;;4.58;100.00;100985.84;687019;28;4353;-65
2022/12/28 01:01:41;;;;;;;6.57;2.40;;;;;;;4.52;100.00;100990.88;686631;28;1943;-65
2022/12/28 01:02:01;;;;;;;5.73;2.40;;;;;;;4.49;100.00;100988.22;687706;28;1152;-63
2022/12/28 01:02:22;;;;;;;6.77;2.30;;;;;;;4.45;100.00;100987.25;687278;28;1607;-64
2022/12/28 01:02:43;;;;;;;8.20;2.42;;;;;;;4.48;100.00;100983.88;687911;28;1477;-65
2022/12/28 01:03:04;;;;;;;7.00;2.50;;;;;;;4.46;100.00;100985.53;682379;28;1262;-64
2022/12/28 01:03:24;;;;;;;6.88;2.67;;;;;;;4.46;100.00;100977.78;682320;28;1370;-64
2022/12/28 01:03:45;;;;;;;6.33;2.47;;;;;;;4.46;100.00;100980.34;682052;28;1463;-65
2022/12/28 01:04:06;;;;;;;6.40;2.30;;;;;;;4.45;100.00;100982.09;680113;28;4362;-65
2022/12/28 01:04:26;;;;;;;7.22;2.33;;;;;;;4.49;100.00;100980.47;682800;28;1524;-65
2022/12/28 01:04:47;;;;;;;6.23;2.23;;;;;;;4.54;100.00;100978.84;682020;28;1539;-65
2022/12/28 01:05:08;;;;;;;6.47;2.30;;;;;;;4.56;100.00;100972.88;684576;28;1546;-65
2022/12/28 01:05:29;;;;;;;6.20;2.20;;;;;;;4.56;100.00;100978.03;683479;28;1548;-64
2022/12/28 01:05:49;;;;;;;6.25;2.40;;;;;;;4.57;100.00;100974.63;684862;28;1246;-65
2022/12/28 01:06:12;;;;;;;6.53;2.10;;;;;;;4.52;100.00;100977.94;684899;28;1651;-64
2022/12/28 01:06:32;;;;;;;5.70;2.10;;;;;;;4.52;100.00;100967.59;682617;28;1376;-64
2022/12/28 01:06:53;;;;;;;5.13;2.08;;;;;;;4.63;100.00;100973.91;682943;28;1214;-65
2022/12/28 01:07:13;;;;;;;4.87;2.10;;;;;;;4.57;100.00;100974.63;682788;28;4312;-64
2022/12/28 01:07:34;;;;;;;5.40;2.22;;;;;;;4.53;100.00;100974.53;684568;28;1255;-66
2022/12/28 01:07:55;;;;;;;5.18;2.30;;;;;;;4.48;100.00;100976.97;682665;28;1274;-65
2022/12/28 01:08:15;;;;;;;5.30;2.30;;;;;;;4.44;100.00;100975.16;680954;28;1313;-64
2022/12/28 01:08:37;;;;;;;6.17;2.33;;;;;;;4.43;100.00;100976.88;684963;28;1160;-64
2022/12/28 01:08:59;;;;;;;6.70;2.38;;;;;;;4.48;100.00;100973.53;681504;28;1199;-63
2022/12/28 01:09:20;;;;;;;6.20;2.20;;;;;;;4.52;100.00;100978.81;681569;28;1361;-64
2022/12/28 01:09:41;;;;;;;6.20;2.30;;;;;;;4.57;100.00;100973.75;680880;28;1261;-64
2022/12/28 01:10:01;;;;;;;6.40;2.63;;;;;;;4.54;100.00;100974.56;681233;28;4613;-65
2022/12/28 01:10:22;;;;;;;6.00;2.20;;;;;;;4.51;100.00;100973.59;682770;28;1736;-65
2022/12/28 01:10:43;;;;;;;5.75;2.20;;;;;;;4.49;100.00;100967.50;681446;28;1334;-65
2022/12/28 01:11:13;;;;;;;6.33;2.30;;;;;;;4.57;100.00;100969.44;684811;28;1350;-64
2022/12/28 01:11:33;;;;;;;6.10;2.30;;;;;;;4.57;100.00;100966.84;685811;28;1189;-64
2022/12/28 01:11:53;;;;;;;6.13;2.40;;;;;;;4.57;100.00;100973.75;686001;28;1323;-64
2022/12/28 01:12:16;;;;;;;5.22;2.28;;;;;;;4.53;100.00;100961.56;689664;28;1163;-64
2022/12/28 01:12:36;;;;;;;5.10;2.20;;;;;;;4.49;100.00;100959.75;687355;28;1971;-64
2022/12/28 01:12:57;;;;;;;4.67;2.10;;;;;;;4.46;100.00;100964.81;687712;28;4350;-65
2022/12/28 01:13:17;;;;;;;4.80;2.20;;;;;;;4.50;100.00;100961.47;686887;28;1083;-65
2022/12/28 01:13:38;;;;;;;5.57;2.30;;;;;;;4.63;100.00;100963.53;687789;28;1438;-64
2022/12/28 01:14:00;;;;;;;6.40;2.70;;;;;;;4.60;100.00;100963.47;683823;28;1324;-64
2022/12/28 01:14:20;;;;;;;6.22;2.30;;;;;;;4.56;100.00;100961.66;681991;28;1388;-64
2022/12/28 01:14:41;;;;;;;6.23;2.43;;;;;;;4.52;100.00;100965.00;682885;28;1452;-64
2022/12/28 01:15:02;;;;;;;5.22;2.53;;;;;;;4.47;100.00;100962.28;682924;28;1747;-64
2022/12/28 01:15:23;;;;;;;6.03;2.20;;;;;;;4.43;100.00;100961.34;681737;28;1355;-63
2022/12/28 01:15:43;;;;;;;6.75;2.20;;;;;;;4.48;100.00;100964.03;683589;28;1287;-64
2022/12/28 01:16:19;;;;;;;7.20;2.30;;;;;;;4.48;100.00;100966.63;684520;28;4341;-64
2022/12/28 01:16:41;;;;;;;6.30;2.20;;;;;;;4.48;100.00;100960.56;685722;28;1148;-64
2022/12/28 01:17:01;;;;;;;5.40;2.13;;;;;;;4.50;100.00;100964.06;686236;28;1316;-64
2022/12/28 01:17:24;;;;;;;5.45;2.38;;;;;;;4.50;100.00;100958.88;684738;28;1384;-64
2022/12/28 01:17:44;;;;;;;5.20;2.37;;;;;;;4.52;100.00;100965.84;684502;28;1288;-64
2022/12/28 01:18:05;;;;;;;6.18;2.28;;;;;;;4.51;100.00;100958.06;687718;28;1203;-64
2022/12/28 01:18:25;;;;;;;6.83;2.13;;;;;;;4.71;100.00;100959.41;688517;28;1528;-65
2022/12/28 01:18:46;;;;;;;5.97;2.30;;;;;;;4.68;100.00;100959.34;685003;28;932;-64
2022/12/28 01:19:07;;;;;;;6.95;2.40;;;;;;;4.64;100.00;100962.72;684763;28;4545;-64
2022/12/28 01:19:27;;;;;;;6.18;2.35;;;;;;;4.63;100.00;100962.69;689168;28;1294;-64
2022/12/28 01:19:48;;;;;;;5.13;2.40;;;;;;;4.64;100.00;100964.41;687451;28;1239;-63
2022/12/28 01:20:09;;;;;;;5.78;2.40;;;;;;;4.69;100.00;100962.81;688282;28;1306;-64
2022/12/28 01:20:29;;;;;;;6.32;2.30;;;;;;;4.63;100.00;100968.72;685333;28;1500;-64
2022/12/28 01:20:50;;;;;;;5.87;2.10;;;;;;;4.66;100.00;100962.75;687568;28;1398;-65
2022/12/28 01:21:15;;;;;;;6.87;2.10;;;;;;;4.69;100.00;100966.25;687504;28;1392;-64
2022/12/28 01:21:36;;;;;;;6.63;2.00;;;;;;;4.65;100.00;100961.84;687984;28;1336;-63
2022/12/28 01:21:56;;;;;;;5.43;2.00;;;;;;;4.73;100.00;100962.91;684778;28;1244;-64
2022/12/28 01:22:17;;;;;;;4.38;1.90;;;;;;;4.71;100.00;100962.00;685704;28;4367;-64
2022/12/28 01:22:38;;;;;;;5.53;2.35;;;;;;;4.64;100.00;100956.63;686419;28;1677;-64
2022/12/28 01:23:00;;;;;;;4.13;1.88;;;;;;;4.59;100.00;100972.94;686680;28;1408;-64
2022/12/28 01:23:21;;;;;;;5.55;2.60;;;;;;;4.62;100.00;100959.19;679521;29;1473;-66
2022/12/28 01:23:43;;;;;;;5.70;2.30;;;;;;;4.64;100.00;100959.22;681249;28;1960;-63
2022/12/28 01:24:06;;;;;;;7.30;2.30;;;;;;;4.62;100.00;100960.91;681619;28;2085;-62
2022/12/28 01:24:27;;;;;;;5.47;2.10;;;;;;;4.63;100.00;100958.34;679119;29;1324;-64
2022/12/28 01:24:47;;;;;;;6.13;2.23;;;;;;;4.69;100.00;100955.03;678799;29;1567;-63
2022/12/28 01:25:08;;;;;;;6.30;2.20;;;;;;;4.70;100.00;100954.22;678013;28;4327;-65
2022/12/28 01:25:32;;;;;;;6.43;2.22;;;;;;;4.68;100.00;100958.47;677162;29;1390;-63
2022/12/28 01:25:52;;;;;;;6.63;2.28;;;;;;;4.65;100.00;100956.66;677667;29;1244;-63
2022/12/28 01:26:14;;;;;;;5.60;2.20;;;;;;;4.59;100.00;100956.53;680972;29;1201;-65
2022/12/28 01:26:34;;;;;;;4.90;2.20;;;;;;;4.58;100.00;100955.66;683793;28;1397;-64
2022/12/28 01:26:55;;;;;;;5.15;2.22;;;;;;;4.56;100.00;100959.06;678812;29;1644;-63
2022/12/28 01:27:15;;;;;;;6.77;2.27;;;;;;;4.57;100.00;100953.91;681509;28;1383;-63
2022/12/28 01:27:36;;;;;;;7.60;2.30;;;;;;;4.53;100.00;100961.56;679954;29;1433;-63
2022/12/28 01:27:56;;;;;;;7.23;2.20;;;;;;;4.53;100.00;100966.75;677336;29;1434;-64
2022/12/28 01:28:17;;;;;;;6.63;2.10;;;;;;;4.52;100.00;100959.81;678945;29;4749;-64
2022/12/28 01:28:38;;;;;;;6.97;2.10;;;;;;;4.50;100.00;100961.47;679435;28;1340;-64
2022/12/28 01:28:58;;;;;;;6.27;2.00;;;;;;;4.67;100.00;100962.78;684623;28;1256;-64
2022/12/28 01:29:19;;;;;;;7.05;2.08;;;;;;;4.72;100.00;100963.78;685129;28;1313;-63
2022/12/28 01:29:39;;;;;;;6.57;2.23;;;;;;;4.68;100.00;100963.63;685933;28;1349;-64
2022/12/28 01:29:59;;;;;;;5.88;2.42;;;;;;;4.67;100.00;100954.16;687880;28;1391;-64
2022/12/28 01:30:20;;;;;;;6.03;2.30;;;;;;;4.72;100.00;100960.28;688869;28;1332;-62
2022/12/28 01:30:40;;;;;;;6.50;2.33;;;;;;;4.69;100.00;100955.91;689221;28;1628;-63
2022/12/28 01:31:12;;;;;;;6.33;2.40;;;;;;;4.65;100.00;100958.41;683912;28;4460;-63
2022/12/28 01:31:32;;;;;;;5.80;2.30;;;;;;;4.64;100.00;100960.13;681874;28;1262;-65
2022/12/28 01:31:53;;;;;;;5.25;2.10;;;;;;;4.64;100.00;100957.53;679936;29;1379;-63
2022/12/28 01:32:13;;;;;;;5.10;2.30;;;;;;;4.68;100.00;100958.47;680851;29;1263;-64
2022/12/28 01:32:34;;;;;;;5.63;2.30;;;;;;;4.64;100.00;100960.13;679931;29;1918;-66
2022/12/28 01:32:54;;;;;;;7.00;2.30;;;;;;;4.75;100.00;100956.06;681540;28;1174;-63
2022/12/28 01:33:15;;;;;;;6.53;2.20;;;;;;;4.69;100.00;100952.44;682081;28;1281;-65
2022/12/28 01:33:35;;;;;;;6.60;2.43;;;;;;;4.70;100.00;100960.25;686250;28;1204;-64
2022/12/28 01:33:56;;;;;;;6.60;2.88;;;;;;;4.75;100.00;100953.47;685056;28;1169;-64
2022/12/28 01:34:16;;;;;;;6.97;3.10;;;;;;;4.76;100.00;100952.66;687381;28;4415;-65
2022/12/28 01:34:39;;;;;;;5.15;2.10;;;;;;;4.83;100.00;100945.00;688788;28;1443;-64
2022/12/28 01:35:00;;;;;;;5.50;2.10;;;;;;;4.77;100.00;100945.75;684985;28;1389;-63
2022/12/28 01:35:20;;;;;;;4.72;2.10;;;;;;;4.73;100.00;100934.41;682841;28;1222;-63
2022/12/28 01:35:41;;;;;;;5.87;2.10;;;;;;;4.73;100.00;100937.00;682544;28;1121;-62
2022/12/28 01:36:19;;;;;;;5.57;2.15;;;;;;;4.73;100.00;100941.31;683555;28;1252;-63
2022/12/28 01:36:39;;;;;;;6.32;2.72;;;;;;;4.76;100.00;100933.63;684840;28;1241;-63
2022/12/28 01:36:59;;;;;;;5.63;2.50;;;;;;;4.74;100.00;100936.19;686706;28;4605;-63
2022/12/28 01:37:21;;;;;;;4.80;2.00;;;;;;;4.78;100.00;100935.41;690194;28;1368;-64
2022/12/28 01:37:41;;;;;;;5.53;2.30;;;;;;;4.76;100.00;100937.09;690980;28;1451;-63
2022/12/28 01:38:02;;;;;;;6.10;2.20;;;;;;;4.90;100.00;100941.72;687335;28;1519;-64
2022/12/28 01:38:22;;;;;;;6.00;2.20;;;;;;;4.91;100.00;100943.47;688127;28;1464;-64
2022/12/28 01:38:44;;;;;;;5.63;2.30;;;;;;;4.83;100.00;100945.00;685688;28;1452;-63
2022/12/28 01:39:05;;;;;;;6.10;2.22;;;;;;;4.76;100.00;100944.88;682296;28;1245;-63
2022/12/28 01:39:25;;;;;;;5.70;2.30;;;;;;;4.86;100.00;100939.88;683197;28;1102;-63
2022/12/28 01:39:48;;;;;;;5.90;2.47;;;;;;;4.84;100.00;100941.59;681446;28;1442;-64
2022/12/28 01:40:13;;;;;;;6.28;2.40;;;;;;;4.75;100.00;100937.94;682232;28;4389;-64
2022/12/28 01:40:34;;;;;;;5.63;2.20;;;;;;;4.73;100.00;100938.72;684215;28;1073;-64
2022/12/28 01:40:56;;;;;;;5.78;2.15;;;;;;;4.73;100.00;100933.56;683772;28;1199;-64
2022/12/28 01:41:18;;;;;;;5.60;2.20;;;;;;;4.75;100.00;100940.53;682818;28;1396;-63